Latest Weather Observations for Melbourne Airport

IDV60901

Issued at 10:21 pm EST Wednesday 5 August 2015 (issued every 10 minutes, with the page automatically refreshed every 10 minutes)

About weather observations | Map of Melbourne area stations | Latest observations for Melbourne area | Other Formats
Station Details ID: 086282 Name: MELBOURNE AIRPORT Lat: -37.67 Lon: 144.83 Height: 113.4 m
Data from the previous 72 hours. | See also: Recent months at Melbourne Airport
Date/Time
EST
Tmp

°C
App
Tmp
°C
Dew
Point
°C
Rel
Hum
%
Delta-T

°C
Wind Press
QNH
hPa
Press
MSL
hPa
Rain
since
9 am
mm
Dir
 
Spd
km/h
Gust
km/h
Spd
kts
Gust
kts
05/10:00pm 6.0 0.7 2.9 80 1.3 W 20 26 11 14 1016.3 1016.5 0.0
05/09:30pm 5.7 0.4 2.8 81 1.2 W 20 28 11 15 1016.4 1016.6 0.0
05/09:00pm 5.4 0.1 3.0 84 1.0 W 20 28 11 15 1016.1 1016.3 0.0
05/08:30pm 4.7 0.0 3.0 89 0.7 WNW 17 24 9 13 1016.1 1016.3 0.0
05/08:00pm 4.4 -0.4 2.7 89 0.7 W 17 20 9 11 1016.2 1016.4 0.0
05/07:30pm 4.8 0.3 2.3 84 1.0 W 15 19 8 10 1016.2 1016.4 0.0
05/07:00pm 6.0 -0.2 2.3 77 1.5 W 24 32 13 17 1016.0 1016.2 0.0
05/06:30pm 6.6 0.4 2.0 72 1.9 W 24 32 13 17 1015.5 1015.7 0.0
05/06:00pm 6.7 1.6 2.9 77 1.6 WSW 19 26 10 14 1015.1 1015.3 0.0
05/05:30pm 7.4 1.7 2.6 71 2.0 WSW 22 33 12 18 1014.8 1015.0 0.0
05/05:09pm 8.0 1.1 2.3 67 2.4 SW 28 46 15 25 1014.6 1014.8 0.0
05/05:00pm 7.9 1.9 3.2 72 2.0 SW 24 33 13 18 1014.6 1014.8 0.0
05/04:30pm 8.2 3.0 3.3 71 2.1 SW 20 28 11 15 1014.4 1014.5 0.0
05/04:04pm 8.0 0.3 3.3 72 2.0 WSW 33 52 18 28 1014.3 1014.4 0.0
05/04:00pm 9.4 1.6 1.5 58 3.3 WSW 32 39 17 21 1014.0 1014.1 0.0
05/03:30pm 9.6 -0.2 -0.1 51 3.9 SW 41 59 22 32 1013.7 1013.8 0.0
05/03:00pm 10.6 2.0 0.4 49 4.2 SW 35 54 19 29 1013.3 1013.4 0.0
05/02:37pm 9.4 1.8 0.6 54 3.6 SW 30 50 16 27 1013.2 1013.3 0.0
05/02:30pm 9.3 2.1 0.7 55 3.5 WSW 28 43 15 23 1013.3 1013.4 0.0
05/02:00pm 9.3 2.1 2.8 64 2.8 WSW 30 39 16 21 1013.2 1013.3 0.0
05/01:30pm 8.4 1.3 3.3 70 2.2 WSW 30 54 16 29 1013.2 1013.3 0.0
05/01:00pm 9.5 3.4 2.7 62 2.9 WSW 24 32 13 17 1013.2 1013.3 0.0
05/12:30pm 7.6 -0.7 2.1 68 2.3 SW 35 50 19 27 1013.5 1013.6 0.0
05/12:26pm 9.2 1.8 1.8 60 3.1 SW 30 50 16 27 1013.4 1013.5 0.0
05/12:00pm 9.6 3.0 2.3 60 3.1 SW 26 39 14 21 1013.5 1013.6 0.0
05/11:30am 9.7 2.8 2.7 61 3.0 SW 28 37 15 20 1013.8 1013.9 0.0
05/11:00am 9.8 2.7 3.4 64 2.8 WSW 30 41 16 22 1013.7 1013.8 0.0
05/10:30am 9.1 1.5 3.1 66 2.6 WSW 32 41 17 22 1013.6 1013.7 0.0
05/10:00am 8.8 2.9 4.0 72 2.1 WSW 24 32 13 17 1013.4 1013.5 0.0
05/09:30am 8.4 2.5 4.1 74 1.9 W 24 33 13 18 1013.2 1013.3 0.0
05/09:00am 8.3 3.5 4.7 78 1.6 W 19 26 10 14 1013.1 1013.2 1.0
05/08:30am 7.8 2.8 4.6 80 1.4 W 20 28 11 15 1013.0 1013.1 1.0
05/08:00am 7.6 1.5 4.7 82 1.3 W 26 33 14 18 1012.7 1012.8 1.0
05/07:30am 6.4 1.4 4.8 89 0.7 WNW 20 30 11 16 1012.4 1012.5 1.0
05/07:00am 6.9 2.6 5.1 88 0.8 WNW 17 20 9 11 1012.2 1012.3 1.0
05/06:30am 7.1 1.9 5.3 88 0.8 WNW 22 30 12 16 1012.1 1012.2 1.0
05/06:00am 7.5 2.0 6.0 90 0.7 W 24 32 13 17 1012.0 1012.1 1.0
05/05:30am 7.9 1.0 6.4 90 0.7 W 32 41 17 22 1011.6 1011.7 0.8
05/05:19am 7.8 1.3 6.5 91 0.6 W 30 37 16 20 1011.4 1011.5 0.6
05/05:00am 8.2 2.0 6.0 86 1.0 W 28 33 15 18 1011.3 1011.4 0.2
05/04:30am 8.8 3.0 4.5 74 1.9 WNW 24 32 13 17 1011.0 1011.1 0.0
05/04:00am 8.8 2.9 4.0 72 2.1 NW 24 33 13 18 1011.1 1011.2 0.0
05/03:30am 8.8 2.5 3.8 71 2.2 WNW 26 33 14 18 1011.6 1011.7 0.0
05/03:00am 8.8 4.2 3.8 71 2.2 WNW 17 28 9 15 1012.1 1012.2 0.0
05/02:30am 7.8 4.1 4.6 80 1.4 N 13 19 7 10 1012.3 1012.4 0.0
05/02:00am 8.2 4.1 4.3 76 1.7 NNE 15 19 8 10 1012.7 1012.8 0.0
05/01:30am 8.0 3.9 4.4 78 1.6 N 15 20 8 11 1013.2 1013.3 0.0
05/01:00am 8.8 4.3 4.0 72 2.1 N 17 20 9 11 1013.4 1013.5 0.0
05/12:30am 8.8 4.9 3.5 69 2.3 NNW 13 19 7 10 1013.8 1013.9 0.0
05/12:00am 8.7 5.6 3.6 70 2.2 NNE 9 15 5 8 1014.0 1014.1 0.0
 
Date/Time
EST
Tmp

°C
App
Tmp
°C
Dew
Point
°C
Rel
Hum
%
Delta-T

°C
Wind Press
QNH
hPa
Press
MSL
hPa
Rain
since
9 am
mm
Dir
 
Spd
km/h
Gust
km/h
Spd
kts
Gust
kts
04/11:30pm 8.2 3.3 4.3 76 1.7 N 19 24 10 13 1014.2 1014.3 0.0
04/11:00pm 8.7 4.1 3.9 72 2.1 NNW 17 28 9 15 1014.8 1015.0 0.0
04/10:30pm 8.7 3.8 4.2 73 2.0 NNW 19 30 10 16 1015.3 1015.5 0.0
04/10:00pm 7.7 1.8 3.8 76 1.7 N 24 30 13 16 1015.6 1015.8 0.0
04/09:30pm 7.5 1.2 3.5 76 1.7 N 26 32 14 17 1015.8 1016.0 0.0
04/09:00pm 7.3 0.1 2.8 73 1.9 N 30 35 16 19 1015.9 1016.1 0.0
04/08:30pm 7.5 -0.2 2.5 70 2.1 N 32 35 17 19 1016.1 1016.3 0.0
04/08:00pm 7.3 0.3 2.2 70 2.1 N 28 33 15 18 1016.9 1017.1 0.0
04/07:30pm 7.6 -0.2 2.0 67 2.3 N 32 39 17 21 1016.9 1017.1 0.0
04/07:00pm 7.8 1.6 2.0 67 2.4 N 24 30 13 16 1017.2 1017.4 0.0
04/06:30pm 8.3 2.4 1.5 62 2.8 N 22 28 12 15 1017.4 1017.6 0.0
04/06:00pm 8.5 3.1 1.5 61 2.9 NNW 19 28 10 15 1017.9 1018.1 0.0
04/05:30pm 8.7 3.3 1.4 60 3.0 NNW 19 26 10 14 1018.2 1018.3 0.0
04/05:00pm 9.3 3.7 1.0 56 3.4 NNW 20 26 11 14 1017.9 1018.1 0.0
04/04:30pm 9.6 4.1 0.8 54 3.6 NW 19 28 10 15 1018.3 1018.4 0.0
04/04:00pm 9.4 3.8 1.1 56 3.4 NNW 20 28 11 15 1018.7 1018.8 0.0
04/03:30pm 10.0 4.5 0.7 52 3.8 NW 19 26 10 14 1019.0 1019.1 0.0
04/03:00pm 9.6 4.1 0.5 53 3.7 WNW 19 30 10 16 1019.6 1019.7 0.0
04/02:30pm 9.5 3.1 1.0 55 3.5 WNW 24 32 13 17 1019.8 1019.9 0.0
04/02:00pm 9.6 3.0 -0.1 51 3.9 WNW 24 32 13 17 1020.1 1020.2 0.0
04/01:30pm 9.9 2.9 -0.7 47 4.2 WNW 26 35 14 19 1020.3 1020.4 0.0
04/01:00pm 9.9 3.4 0.3 51 3.9 WNW 24 30 13 16 1020.8 1020.9 0.0
04/12:30pm 9.7 3.9 -0.3 49 4.0 W 20 28 11 15 1021.3 1021.4 0.0
04/12:00pm 9.2 2.5 -1.1 48 4.0 W 24 30 13 16 1022.1 1022.3 0.0
04/11:30am 9.4 2.0 -0.8 49 4.0 W 28 33 15 18 1022.5 1022.7 0.0
04/11:00am 9.1 2.5 -0.6 50 3.8 WNW 24 32 13 17 1022.7 1022.9 0.0
04/10:30am 8.4 2.2 -0.6 53 3.5 WNW 22 32 12 17 1023.0 1023.2 0.0
04/10:00am 8.5 2.3 -0.1 54 3.4 WNW 22 30 12 16 1023.1 1023.3 0.0
04/09:30am 7.9 1.0 0.3 58 3.0 WNW 26 33 14 18 1023.2 1023.4 0.0
04/09:00am 7.5 2.4 0.7 62 2.7 NW 17 30 9 16 1023.2 1023.4 0.0
04/08:30am 4.7 0.3 0.3 73 1.7 N 13 15 7 8 1023.5 1023.7 0.0
04/08:00am 5.0 0.6 0.6 73 1.7 NW 13 17 7 9 1023.6 1023.8 0.0
04/07:30am 4.6 -0.6 0.1 72 1.7 NW 17 28 9 15 1023.5 1023.7 0.0
04/07:00am 4.2 -1.1 -0.3 72 1.7 NW 17 20 9 11 1023.3 1023.5 0.0
04/06:30am 3.3 -2.0 -0.5 76 1.4 NW 17 24 9 13 1023.3 1023.5 0.0
04/06:00am 2.9 -2.0 -0.7 77 1.3 NW 15 19 8 10 1023.1 1023.3 0.0
04/05:30am 2.7 -1.8 -0.6 79 1.2 NW 13 15 7 8 1023.0 1023.2 0.0
04/05:00am 2.5 -2.1 -0.8 79 1.2 NNW 13 17 7 9 1022.8 1023.0 0.0
04/04:30am 2.9 -1.6 -0.4 79 1.2 NW 13 15 7 8 1022.9 1023.1 0.0
04/04:00am 3.4 -1.1 -0.4 76 1.4 NW 13 19 7 10 1022.8 1023.0 0.0
04/03:30am 3.4 -1.4 -0.1 78 1.3 NW 15 19 8 10 1022.9 1023.1 0.0
04/03:00am 3.7 -1.1 0.0 77 1.4 NW 15 20 8 11 1023.0 1023.2 0.0
04/02:30am 3.8 -1.8 0.1 77 1.4 WNW 19 22 10 12 1023.3 1023.5 0.0
04/02:00am 5.2 -0.5 0.3 70 1.9 W 20 30 11 16 1023.4 1023.6 0.0
04/01:30am 5.1 -0.5 0.1 70 1.9 W 19 24 10 13 1023.5 1023.7 0.0
04/01:00am 5.0 -0.5 0.3 71 1.8 WNW 19 26 10 14 1023.5 1023.7 0.0
04/12:30am 5.1 -1.0 0.4 71 1.8 W 22 28 12 15 1023.5 1023.7 0.0
04/12:00am 5.0 -0.5 0.6 73 1.7 WNW 19 26 10 14 1023.7 1023.9 0.0
 
Date/Time
EST
Tmp

°C
App
Tmp
°C
Dew
Point
°C
Rel
Hum
%
Delta-T

°C
Wind Press
QNH
hPa
Press
MSL
hPa
Rain
since
9 am
mm
Dir
 
Spd
km/h
Gust
km/h
Spd
kts
Gust
kts
03/11:30pm 4.8 -0.3 0.9 76 1.5 WNW 17 22 9 12 1023.7 1023.9 0.0
03/11:00pm 4.5 0.1 0.3 74 1.6 NW 13 17 7 9 1023.7 1023.9 0.0
03/10:30pm 4.5 0.0 -0.3 71 1.8 NW 13 15 7 8 1024.0 1024.2 0.0
03/10:00pm 3.3 -0.8 -0.2 78 1.3 NW 11 13 6 7 1024.0 1024.2 0.0
03/09:30pm 3.7 -1.1 0.5 79 1.2 WNW 15 24 8 13 1024.0 1024.2 0.0
03/09:00pm 3.8 -1.0 0.4 78 1.3 WNW 15 20 8 11 1023.9 1024.1 0.0
03/08:30pm 2.3 -2.5 0.1 85 0.8 WNW 15 20 8 11 1023.8 1024.0 0.0
03/08:00pm 3.2 -2.3 0.6 83 1.0 WNW 19 22 10 12 1023.6 1023.8 0.0
03/07:30pm 3.2 -1.6 0.3 81 1.1 W 15 17 8 9 1023.3 1023.5 0.0
03/07:00pm 3.4 -1.3 0.8 83 1.0 W 15 17 8 9 1023.1 1023.3 0.0
03/06:30pm 4.5 1.5 0.9 77 1.4 W 6 7 3 4 1022.6 1022.8 0.0
03/06:00pm 5.0 1.6 1.7 79 1.3 SW 9 11 5 6 1022.5 1022.7 0.0
03/05:30pm 6.4 1.4 1.4 70 2.0 S 17 24 9 13 1022.1 1022.3 0.0
03/05:00pm 7.5 1.7 -0.2 58 3.0 SSW 20 30 11 16 1021.8 1022.0 0.0
03/04:30pm 7.9 2.0 -0.9 54 3.4 SW 20 32 11 17 1021.4 1021.5 0.0
03/04:07pm 6.4 -1.0 1.7 72 1.9 SSW 30 48 16 26 1021.1 1021.2 0.0
03/04:00pm 6.3 -1.6 2.4 76 1.6 SSW 33 48 18 26 1021.3 1021.4 0.0
03/03:30pm 8.7 2.8 -0.8 51 3.7 SSW 20 26 11 14 1020.7 1020.8 0.0
03/03:00pm 9.0 2.8 -0.4 52 3.7 SSW 22 33 12 18 1020.4 1020.5 0.0
03/02:30pm 8.8 0.8 -2.7 44 4.3 SW 30 50 16 27 1020.1 1020.2 0.0
03/02:00pm 9.8 4.1 0.5 52 3.8 SSW 20 30 11 16 1019.9 1020.0 0.0
03/01:30pm 6.7 -1.8 0.9 66 2.3 SSW 35 48 19 26 1020.0 1020.1 0.0
03/01:00pm 9.9 0.9 -2.5 42 4.7 WSW 35 44 19 24 1019.6 1019.7 0.0
03/12:30pm 9.3 0.9 -1.2 48 4.1 SW 33 44 18 24 1019.5 1019.6 0.0
03/12:00pm 8.5 0.2 -1.7 48 3.9 SW 32 41 17 22 1019.5 1019.6 0.0
03/11:30am 8.9 0.1 -1.5 48 4.0 SW 35 46 19 25 1019.4 1019.5 0.0
03/11:00am 8.6 -0.2 -0.9 51 3.7 SW 35 48 19 26 1019.3 1019.4 0.0
03/10:30am 8.0 -0.1 0.8 60 2.9 SW 33 48 18 26 1019.0 1019.1 0.0
03/10:23am 8.3 0.3 1.5 62 2.8 WSW 33 52 18 28 1019.0 1019.1 0.0
03/10:00am 7.7 0.4 2.4 69 2.2 WSW 30 41 16 22 1018.6 1018.7 0.0
03/09:30am 7.0 0.5 2.7 74 1.8 WSW 26 33 14 18 1018.2 1018.3 0.0
03/09:00am 6.3 0.3 3.5 82 1.2 W 24 32 13 17 1017.6 1017.8 2.6
03/08:30am 6.3 -0.4 3.7 83 1.1 WSW 28 37 15 20 1017.2 1017.4 2.6
03/08:00am 6.4 -1.2 3.1 79 1.4 W 32 41 17 22 1016.3 1016.5 2.6
03/07:30am 6.6 0.7 3.8 82 1.2 WSW 24 37 13 20 1015.8 1016.0 2.6
03/07:00am 6.6 0.0 4.3 85 1.0 SW 28 43 15 23 1015.0 1015.2 2.6
03/06:38am 7.9 0.1 3.0 71 2.1 WSW 33 48 18 26 1014.4 1014.5 2.4
03/06:30am 8.0 0.2 2.8 70 2.2 W 33 48 18 26 1014.4 1014.5 2.4
03/06:16am 8.1 0.4 3.2 71 2.1 WSW 33 56 18 30 1014.0 1014.1 2.4
03/06:00am 8.4 0.8 3.0 69 2.3 W 32 41 17 22 1013.8 1013.9 2.2
03/05:30am 8.5 2.2 3.7 72 2.1 W 26 35 14 19 1013.3 1013.4 2.2
03/05:00am 8.5 1.8 3.9 73 2.0 W 28 39 15 21 1013.2 1013.3 2.2
03/04:30am 9.0 2.3 3.5 68 2.4 W 28 37 15 20 1013.0 1013.1 2.2
03/04:00am 9.0 1.5 3.7 69 2.3 W 32 39 17 21 1012.8 1012.9 2.2
03/03:30am 9.3 1.7 3.0 65 2.7 W 32 52 17 28 1012.6 1012.7 2.2
03/03:00am 9.4 1.2 2.9 64 2.8 WNW 35 54 19 29 1012.7 1012.8 2.2
03/02:30am 9.5 0.5 2.5 61 3.0 WNW 39 52 21 28 1012.8 1012.9 2.2
03/02:12am 9.7 2.4 2.2 59 3.2 WNW 30 52 16 28 1012.7 1012.8 2.2
03/02:00am 9.5 1.6 2.5 61 3.0 WNW 33 48 18 26 1012.7 1012.8 2.2
03/01:55am 9.6 2.7 2.3 60 3.1 NW 28 48 15 26 1012.8 1012.9 2.2
03/01:30am 9.2 3.5 2.9 65 2.7 NW 22 32 12 17 1012.9 1013.0 2.2
03/01:00am 9.2 3.1 2.9 65 2.7 NNW 24 33 13 18 1012.9 1013.0 2.2
03/12:30am 9.1 3.1 3.1 66 2.6 NNW 24 33 13 18 1013.0 1013.1 2.2
03/12:00am 9.1 1.3 3.1 66 2.6 WNW 33 46 18 25 1013.2 1013.3 2.2
 
Date/Time
EST
Tmp

°C
App
Tmp
°C
Dew
Point
°C
Rel
Hum
%
Delta-T

°C
Wind Press
QNH
hPa
Press
MSL
hPa
Rain
since
9 am
mm
Dir
 
Spd
km/h
Gust
km/h
Spd
kts
Gust
kts
02/11:30pm 9.5 2.6 2.5 61 3.0 WNW 28 37 15 20 1012.9 1013.0 2.2
02/11:00pm 9.3 3.5 2.5 62 2.9 NW 22 43 12 23 1013.1 1013.2 2.2
02/10:30pm 8.6 2.6 3.3 69 2.3 WNW 24 35 13 19 1013.1 1013.2 2.2

Latest Capital City Observations: Canberra | Sydney | Melbourne | Brisbane | Adelaide | Perth | Hobart | Darwin

Other Formats:

Comma delimited format used in spreadsheet applications
http://www.bom.gov.au/fwo/IDV60901/IDV60901.94866.axf

JavaScript Object Notation format (JSON) in row-major order
http://www.bom.gov.au/fwo/IDV60901/IDV60901.94866.json